Time;durP1;ratioP1;P1;durP2;ratioP2;P2;SDS_P1;SDS_P2;PMS_P1;PMS_P2;Temp;Humidity;BMP_temperature;BMP_pressure;BME280_temperature;BME280_humidity;BME280_pressure;Samples;Min_cycle;Max_cycle;Signal;HPM_P1;HPM_P2
2022/01/02 00:00:00;;;;;;;5.00;3.20;;;7.40;99.90;;;;;;5019883;28;20731;-77
2022/01/02 00:02:29;;;;;;;3.80;2.77;;;7.40;99.90;;;;;;5018861;28;20556;-78
2022/01/02 00:05:06;;;;;;;6.37;2.97;;;7.50;99.90;;;;;;5020229;28;20207;-78
2022/01/02 00:07:35;;;;;;;5.23;2.80;;;7.70;99.90;;;;;;5018554;28;20179;-78
2022/01/02 00:10:04;;;;;;;3.43;2.70;;;8.00;99.90;;;;;;5019233;28;20764;-78
2022/01/02 00:12:33;;;;;;;5.50;2.60;;;8.00;99.90;;;;;;5020009;28;20183;-78
2022/01/02 00:15:03;;;;;;;4.17;3.30;;;8.00;99.90;;;;;;5020222;28;20218;-79
2022/01/02 00:17:30;;;;;;;3.87;2.90;;;7.90;99.90;;;;;;5018734;28;20192;-78
2022/01/02 00:19:58;;;;;;;5.90;2.90;;;7.80;99.90;;;;;;5017723;28;20199;-78
2022/01/02 00:22:35;;;;;;;3.90;2.80;;;7.70;99.90;;;;;;5032147;28;20237;-79
2022/01/02 00:25:11;;;;;;;4.60;2.83;;;7.70;99.90;;;;;;5014130;28;20211;-79
2022/01/02 00:27:37;;;;;;;3.63;3.07;;;7.60;99.90;;;;;;5002690;28;20206;-79
2022/01/02 00:30:06;;;;;;;3.87;3.03;;;7.60;99.90;;;;;;5012106;28;20195;-78
2022/01/02 00:32:36;;;;;;;5.70;3.17;;;7.50;99.90;;;;;;5005719;28;20764;-78
2022/01/02 00:35:02;;;;;;;4.43;2.77;;;7.60;99.90;;;;;;5005964;28;20297;-79
2022/01/02 00:37:28;;;;;;;5.37;3.13;;;7.60;99.90;;;;;;5014897;28;20190;-78
2022/01/02 00:39:53;;;;;;;3.73;2.93;;;7.60;99.90;;;;;;5017285;28;20536;-79
2022/01/02 00:42:30;;;;;;;4.53;3.27;;;7.60;99.90;;;;;;5019728;28;20191;-77
2022/01/02 00:45:00;;;;;;;3.93;2.97;;;7.60;99.90;;;;;;5019059;28;20235;-77
2022/01/02 00:47:30;;;;;;;5.77;2.97;;;7.60;99.90;;;;;;5019301;28;20189;-79
2022/01/02 00:50:11;;;;;;;4.30;3.00;;;7.60;99.90;;;;;;5011434;28;20611;-77
2022/01/02 00:52:42;;;;;;;4.33;2.80;;;7.60;99.90;;;;;;5005250;28;20214;-78
2022/01/02 00:55:11;;;;;;;4.17;3.00;;;7.50;99.90;;;;;;5020405;28;20216;-77
2022/01/02 00:57:39;;;;;;;3.97;3.10;;;7.40;99.90;;;;;;5005536;28;20180;-77
2022/01/02 01:00:15;;;;;;;3.70;2.80;;;7.50;99.90;;;;;;5005466;28;20211;-78
2022/01/02 01:02:46;;;;;;;7.13;3.47;;;7.40;99.90;;;;;;5005280;28;20217;-79
2022/01/02 01:05:19;;;;;;;3.27;2.97;;;7.40;99.90;;;;;;5005209;28;20745;-78
2022/01/02 01:07:48;;;;;;;4.97;4.17;;;7.30;99.90;;;;;;5005528;28;20701;-77
2022/01/02 01:10:14;;;;;;;5.43;3.40;;;7.20;99.90;;;;;;5004195;28;20945;-78
2022/01/02 01:12:40;;;;;;;4.97;3.63;;;7.10;99.90;;;;;;5004437;28;20187;-78
2022/01/02 01:15:08;;;;;;;6.17;3.40;;;7.10;99.90;;;;;;5007389;28;20219;-78
2022/01/02 01:17:36;;;;;;;4.27;3.50;;;7.00;99.90;;;;;;5009001;28;20190;-77
2022/01/02 01:20:03;;;;;;;6.23;4.20;;;7.10;99.90;;;;;;5008794;28;20334;-78
2022/01/02 01:22:29;;;;;;;5.13;3.87;;;7.00;99.90;;;;;;5008038;28;20270;-78
2022/01/02 01:24:54;;;;;;;5.83;3.83;;;6.80;99.90;;;;;;5008713;28;20370;-78
2022/01/02 01:27:21;;;;;;;6.00;3.97;;;6.80;99.90;;;;;;5008002;28;20307;-78
2022/01/02 01:29:46;;;;;;;7.37;4.43;;;6.80;99.90;;;;;;5008727;28;20631;-77
2022/01/02 01:32:12;;;;;;;5.20;3.70;;;6.70;99.90;;;;;;5009115;28;20191;-78
2022/01/02 01:34:38;;;;;;;5.23;3.80;;;6.70;99.90;;;;;;5009301;28;20340;-80
2022/01/02 01:37:03;;;;;;;5.57;4.23;;;6.50;99.90;;;;;;5008857;28;20188;-78
2022/01/02 01:39:29;;;;;;;7.00;3.93;;;6.60;99.90;;;;;;5009661;28;20659;-78
2022/01/02 01:41:57;;;;;;;8.53;3.93;;;6.60;99.90;;;;;;5009046;28;20179;-79
2022/01/02 01:44:40;;;;;;;4.87;3.70;;;6.70;99.90;;;;;;5009681;28;20260;-79
2022/01/02 01:47:06;;;;;;;5.37;3.60;;;6.70;99.90;;;;;;5008909;28;20756;-77
2022/01/02 01:49:32;;;;;;;5.67;4.13;;;6.80;99.90;;;;;;5009669;28;20184;-80
2022/01/02 01:51:58;;;;;;;4.07;3.60;;;6.80;99.90;;;;;;5009629;28;20172;-77
2022/01/02 01:54:24;;;;;;;4.57;3.73;;;6.90;99.90;;;;;;5009412;28;20179;-78
2022/01/02 01:56:52;;;;;;;5.10;3.97;;;6.90;99.90;;;;;;5009193;28;20182;-77
2022/01/02 01:59:21;;;;;;;4.70;3.30;;;7.00;99.90;;;;;;5009449;28;20179;-78
2022/01/02 02:01:48;;;;;;;4.73;3.77;;;7.10;99.90;;;;;;5008456;28;20179;-79
2022/01/02 02:04:15;;;;;;;6.43;3.63;;;7.20;99.90;;;;;;5009513;28;20249;-78
2022/01/02 02:06:41;;;;;;;6.63;4.07;;;7.20;99.90;;;;;;5007666;28;20182;-78
2022/01/02 02:09:06;;;;;;;3.67;3.27;;;7.30;99.90;;;;;;5008367;28;20184;-80
2022/01/02 02:11:36;;;;;;;4.73;3.83;;;7.40;99.90;;;;;;5009552;28;20183;-77
2022/01/02 02:14:04;;;;;;;5.03;3.40;;;7.60;99.90;;;;;;5009190;28;20884;-79
2022/01/02 02:16:30;;;;;;;6.87;3.63;;;7.70;99.90;;;;;;5007737;28;20719;-78
2022/01/02 02:18:55;;;;;;;3.77;3.23;;;7.70;99.90;;;;;;5008890;28;20179;-78
2022/01/02 02:21:32;;;;;;;4.80;3.47;;;7.70;99.90;;;;;;5009029;28;20190;-77
2022/01/02 02:23:58;;;;;;;3.87;3.00;;;7.70;99.90;;;;;;5009098;28;20179;-79
2022/01/02 02:26:24;;;;;;;4.00;3.10;;;7.70;99.90;;;;;;5009728;28;20310;-78
2022/01/02 02:28:50;;;;;;;5.37;3.23;;;7.70;99.90;;;;;;5010273;28;20262;-77
2022/01/02 02:31:15;;;;;;;4.23;3.10;;;7.60;99.90;;;;;;5009883;28;20213;-78
2022/01/02 02:33:41;;;;;;;5.70;3.40;;;7.60;99.90;;;;;;5008680;28;20661;-78
2022/01/02 02:36:08;;;;;;;4.73;3.70;;;7.70;99.90;;;;;;5008527;28;20224;-79
2022/01/02 02:38:33;;;;;;;5.13;4.20;;;7.70;99.90;;;;;;5009881;28;20211;-79
2022/01/02 02:40:59;;;;;;;4.90;3.50;;;7.80;99.90;;;;;;5009944;28;20211;-78
2022/01/02 02:51:31;;;;;;;7.47;3.50;;;7.90;99.90;;;;;;5009357;28;20238;-79
2022/01/02 02:53:56;;;;;;;5.10;3.30;;;7.90;99.90;;;;;;5008498;28;20194;-78
2022/01/02 02:56:29;;;;;;;3.90;3.23;;;7.80;99.90;;;;;;5009069;28;20744;-78
2022/01/02 02:58:56;;;;;;;3.63;2.93;;;8.00;99.90;;;;;;5008813;28;20164;-79
2022/01/02 03:01:25;;;;;;;3.63;3.00;;;8.00;99.90;;;;;;5008561;28;20186;-80
2022/01/02 03:03:51;;;;;;;4.50;3.17;;;8.00;99.90;;;;;;5008367;28;20230;-80
2022/01/02 03:06:18;;;;;;;4.27;2.60;;;8.00;99.90;;;;;;5007173;28;20211;-78
2022/01/02 03:08:45;;;;;;;3.40;2.83;;;8.00;99.90;;;;;;5009154;28;20180;-79
2022/01/02 03:11:15;;;;;;;4.77;3.20;;;7.90;99.90;;;;;;5008207;28;20237;-79
2022/01/02 03:13:41;;;;;;;3.37;2.60;;;7.90;99.90;;;;;;5007303;28;20275;-80
2022/01/02 03:16:08;;;;;;;3.57;2.97;;;7.90;99.90;;;;;;5007868;28;20219;-79
2022/01/02 03:18:33;;;;;;;3.70;2.60;;;7.90;99.90;;;;;;5007819;28;20180;-78
2022/01/02 03:20:59;;;;;;;3.87;2.70;;;7.90;99.90;;;;;;5008070;28;20198;-79
2022/01/02 03:23:25;;;;;;;3.90;2.93;;;7.90;99.90;;;;;;5009048;28;20188;-78
2022/01/02 03:25:50;;;;;;;4.00;3.40;;;7.90;99.90;;;;;;5007399;28;20230;-79
2022/01/02 03:28:16;;;;;;;5.20;3.23;;;7.90;99.90;;;;;;5008650;28;20671;-80
2022/01/02 03:30:42;;;;;;;5.23;3.43;;;8.00;99.90;;;;;;5007010;28;20198;-79
2022/01/02 03:33:08;;;;;;;4.40;3.07;;;8.20;99.90;;;;;;5008855;28;20184;-78
2022/01/02 03:35:34;;;;;;;6.33;3.67;;;8.20;99.90;;;;;;5008046;28;21171;-78
2022/01/02 03:38:01;;;;;;;5.00;3.53;;;8.50;99.90;;;;;;5006287;28;20183;-78
2022/01/02 03:40:27;;;;;;;5.43;3.70;;;8.90;99.90;;;;;;5008196;28;20188;-80
2022/01/02 03:42:53;;;;;;;4.37;3.70;;;9.10;99.90;;;;;;5008039;28;20207;-77
2022/01/02 03:45:19;;;;;;;6.60;3.60;;;9.20;99.90;;;;;;5007618;28;20591;-79
2022/01/02 03:47:44;;;;;;;5.10;3.10;;;9.30;99.90;;;;;;5007634;28;20179;-79
2022/01/02 03:50:10;;;;;;;5.23;3.20;;;9.30;99.90;;;;;;5007686;28;20231;-80
2022/01/02 03:52:35;;;;;;;5.80;3.60;;;9.30;99.90;;;;;;5007726;28;20254;-79
2022/01/02 03:55:01;;;;;;;5.30;3.37;;;9.30;99.90;;;;;;5007186;28;20265;-79
2022/01/02 03:57:27;;;;;;;4.33;3.50;;;9.40;99.90;;;;;;5006536;28;20658;-78
2022/01/02 03:59:52;;;;;;;3.67;2.63;;;9.50;99.90;;;;;;5007593;28;20206;-78
2022/01/02 04:02:19;;;;;;;4.57;2.77;;;9.60;99.90;;;;;;5006651;28;20198;-78
2022/01/02 04:04:45;;;;;;;5.93;2.97;;;9.80;99.90;;;;;;5005481;28;20214;-79
2022/01/02 04:07:11;;;;;;;5.13;2.63;;;10.00;99.90;;;;;;5006060;28;20190;-78
2022/01/02 04:09:37;;;;;;;2.83;2.40;;;10.30;99.90;;;;;;5005667;28;20197;-79
2022/01/02 04:12:02;;;;;;;7.07;2.77;;;10.20;99.90;;;;;;5005295;28;20191;-79
2022/01/02 04:14:28;;;;;;;3.30;2.80;;;10.10;99.90;;;;;;5006226;28;20266;-78
2022/01/02 04:16:53;;;;;;;3.97;2.60;;;10.10;99.90;;;;;;5006283;28;20180;-79
2022/01/02 04:19:19;;;;;;;3.40;2.80;;;10.10;99.90;;;;;;5006053;28;20191;-78
2022/01/02 04:21:45;;;;;;;3.33;2.73;;;10.10;99.90;;;;;;5004419;28;20175;-79
2022/01/02 04:24:10;;;;;;;5.60;3.00;;;10.20;99.90;;;;;;5005961;28;20184;-78
2022/01/02 04:26:36;;;;;;;3.97;2.90;;;10.20;99.90;;;;;;5004759;28;20246;-80
2022/01/02 04:29:02;;;;;;;4.67;3.10;;;10.20;99.90;;;;;;5005868;28;20218;-78
2022/01/02 04:31:28;;;;;;;3.97;2.83;;;10.10;99.90;;;;;;5005775;28;20187;-79
2022/01/02 04:33:53;;;;;;;4.18;2.75;;;10.00;99.90;;;;;;5006922;28;20198;-78
2022/01/02 04:36:19;;;;;;;3.60;2.83;;;9.90;99.90;;;;;;5005599;28;20277;-80
2022/01/02 04:38:45;;;;;;;4.32;2.80;;;10.00;99.90;;;;;;5007260;28;20188;-78
2022/01/02 04:41:11;;;;;;;3.97;2.70;;;9.90;99.90;;;;;;5006186;28;20191;-78
2022/01/02 04:43:37;;;;;;;4.13;3.20;;;9.80;99.90;;;;;;5013428;28;20187;-78
2022/01/02 04:46:03;;;;;;;4.33;2.97;;;9.80;99.90;;;;;;5006538;28;20215;-78
2022/01/02 04:48:28;;;;;;;3.10;2.50;;;9.70;99.90;;;;;;5006885;28;20198;-78
2022/01/02 04:50:54;;;;;;;4.77;2.90;;;9.80;99.90;;;;;;5008904;28;20188;-80
2022/01/02 04:53:21;;;;;;;4.50;2.88;;;9.70;99.90;;;;;;5009186;28;20188;-78
2022/01/02 04:55:47;;;;;;;4.27;2.77;;;9.70;99.90;;;;;;5010573;28;20242;-79
2022/01/02 04:58:12;;;;;;;4.93;3.33;;;9.70;99.90;;;;;;5011051;28;20653;-78
2022/01/02 05:00:38;;;;;;;3.90;2.90;;;9.70;99.90;;;;;;5010557;28;20183;-79
2022/01/02 05:03:03;;;;;;;3.97;2.90;;;9.80;99.90;;;;;;5010641;28;20187;-78
2022/01/02 05:05:29;;;;;;;4.10;2.63;;;9.80;99.90;;;;;;5009248;28;20597;-78
2022/01/02 05:07:54;;;;;;;4.57;2.97;;;10.00;99.90;;;;;;5010482;28;20572;-80
2022/01/02 05:10:20;;;;;;;4.50;2.90;;;10.10;99.90;;;;;;5010744;28;20279;-78
2022/01/02 05:12:46;;;;;;;4.70;2.60;;;10.10;99.90;;;;;;5009361;28;20187;-80
2022/01/02 05:15:11;;;;;;;4.93;3.13;;;10.10;99.90;;;;;;5008772;28;20211;-78
2022/01/02 05:17:37;;;;;;;4.13;2.60;;;10.10;99.90;;;;;;5010683;28;20274;-79
2022/01/02 05:20:04;;;;;;;3.83;2.43;;;10.00;99.90;;;;;;5010408;28;20226;-78
2022/01/02 05:22:30;;;;;;;3.73;2.63;;;9.90;99.90;;;;;;5008765;28;20234;-79
2022/01/02 05:24:55;;;;;;;7.97;3.07;;;9.90;99.90;;;;;;5010125;28;20215;-78
2022/01/02 05:27:21;;;;;;;4.00;3.13;;;10.00;99.90;;;;;;5008942;28;20191;-79
2022/01/02 05:29:47;;;;;;;5.37;2.70;;;10.10;99.90;;;;;;5009379;28;20187;-80
2022/01/02 05:32:12;;;;;;;4.20;2.80;;;10.20;99.90;;;;;;5008937;28;20234;-79
2022/01/02 05:34:38;;;;;;;4.23;2.60;;;10.40;99.90;;;;;;5008372;28;20211;-78
2022/01/02 05:37:03;;;;;;;4.83;2.87;;;10.40;99.90;;;;;;5009281;28;20187;-78
2022/01/02 05:39:29;;;;;;;3.70;2.45;;;10.40;99.90;;;;;;5008564;28;20188;-79
2022/01/02 05:41:54;;;;;;;5.50;2.47;;;10.40;99.90;;;;;;5008549;28;20261;-80
2022/01/02 05:44:21;;;;;;;3.03;2.10;;;10.60;99.90;;;;;;5009951;28;20187;-78
2022/01/02 05:46:47;;;;;;;6.47;2.33;;;10.60;99.90;;;;;;5008783;28;20188;-78
2022/01/02 05:49:13;;;;;;;3.93;2.60;;;10.70;99.90;;;;;;5010158;28;20190;-78
2022/01/02 05:51:39;;;;;;;6.00;2.40;;;10.70;99.90;;;;;;5009739;28;20183;-80
2022/01/02 05:54:05;;;;;;;4.85;2.47;;;10.80;99.90;;;;;;5008363;28;20249;-78
2022/01/02 05:56:32;;;;;;;4.07;2.20;;;10.90;99.90;;;;;;5009291;28;20564;-78
2022/01/02 05:58:58;;;;;;;4.38;2.60;;;10.90;99.90;;;;;;5008254;28;20180;-79
2022/01/02 06:01:24;;;;;;;4.33;2.40;;;11.00;99.90;;;;;;5007307;28;20184;-80
2022/01/02 06:03:49;;;;;;;3.10;2.15;;;11.10;99.90;;;;;;5009344;28;20237;-79
2022/01/02 06:06:15;;;;;;;5.45;2.42;;;11.10;99.90;;;;;;5008105;28;20212;-79
2022/01/02 06:08:40;;;;;;;4.95;2.60;;;11.10;99.90;;;;;;5009644;28;20609;-80
2022/01/02 06:11:06;;;;;;;4.43;2.65;;;11.20;99.90;;;;;;5006557;28;20191;-79
2022/01/02 06:13:32;;;;;;;6.35;2.88;;;11.10;99.90;;;;;;5009426;28;20210;-79
2022/01/02 06:15:57;;;;;;;6.25;2.95;;;11.10;99.90;;;;;;5007743;28;20555;-79
2022/01/02 06:18:23;;;;;;;4.00;2.00;;;11.10;99.90;;;;;;5007997;28;20266;-79
2022/01/02 06:20:49;;;;;;;5.07;2.50;;;11.10;99.90;;;;;;5008859;28;20209;-78
2022/01/02 06:23:16;;;;;;;4.60;2.38;;;11.00;99.90;;;;;;5009566;28;20672;-78
2022/01/02 06:25:42;;;;;;;3.90;2.63;;;11.00;99.90;;;;;;5009018;28;21043;-80
2022/01/02 06:28:08;;;;;;;4.03;2.28;;;10.90;99.90;;;;;;5009585;28;20923;-78
2022/01/02 06:30:33;;;;;;;4.13;2.72;;;11.00;99.90;;;;;;5007981;28;20206;-78
2022/01/02 06:32:59;;;;;;;3.40;2.13;;;11.10;99.90;;;;;;5008714;28;20331;-78
2022/01/02 06:35:27;;;;;;;2.92;2.20;;;11.10;99.90;;;;;;5008807;28;20215;-80
2022/01/02 06:37:53;;;;;;;4.00;2.20;;;11.20;99.90;;;;;;5008981;28;20192;-79
2022/01/02 06:40:20;;;;;;;4.10;2.40;;;11.10;99.90;;;;;;5008169;28;21134;-79
2022/01/02 06:42:46;;;;;;;3.90;2.67;;;11.10;99.90;;;;;;5009548;28;21185;-80
2022/01/02 06:45:12;;;;;;;3.15;2.22;;;11.10;99.90;;;;;;5007727;28;20215;-79
2022/01/02 06:47:38;;;;;;;5.05;2.53;;;11.20;99.90;;;;;;5009381;28;20191;-79
2022/01/02 06:50:04;;;;;;;6.63;2.30;;;11.20;99.90;;;;;;5009031;28;20306;-80
2022/01/02 06:52:30;;;;;;;6.57;2.60;;;11.10;99.90;;;;;;5008633;28;20183;-79
2022/01/02 06:54:55;;;;;;;4.78;2.70;;;11.10;99.90;;;;;;5006937;28;20221;-79
2022/01/02 06:57:21;;;;;;;9.30;2.70;;;11.20;99.90;;;;;;5008977;28;20677;-78
2022/01/02 06:59:48;;;;;;;8.70;2.42;;;11.20;99.90;;;;;;5007751;28;20668;-78
2022/01/02 07:02:14;;;;;;;4.20;2.07;;;11.10;99.90;;;;;;5008422;28;20462;-80
2022/01/02 07:04:39;;;;;;;8.07;2.35;;;11.20;99.90;;;;;;5006998;28;20207;-78
2022/01/02 07:07:05;;;;;;;3.97;1.90;;;11.20;99.90;;;;;;5006899;28;20350;-78
2022/01/02 07:09:31;;;;;;;6.82;2.53;;;11.20;99.90;;;;;;5008832;28;20205;-78
2022/01/02 07:12:00;;;;;;;3.75;2.22;;;11.20;99.90;;;;;;5005649;28;20188;-79
2022/01/02 07:14:27;;;;;;;5.43;2.45;;;11.20;99.90;;;;;;5007865;28;20295;-80
2022/01/02 07:16:57;;;;;;;4.35;2.63;;;11.20;99.90;;;;;;5006185;28;20263;-79
2022/01/02 07:19:22;;;;;;;4.80;2.42;;;11.20;99.90;;;;;;5008381;28;20186;-78
2022/01/02 07:21:49;;;;;;;3.75;2.55;;;11.20;99.90;;;;;;5008141;28;20504;-78
2022/01/02 07:24:15;;;;;;;4.30;2.50;;;11.20;99.90;;;;;;4997863;28;20203;-78
2022/01/02 07:26:41;;;;;;;4.95;2.70;;;11.20;99.90;;;;;;5006940;28;20196;-78
2022/01/02 07:29:07;;;;;;;5.32;2.30;;;11.20;99.90;;;;;;5006507;28;20198;-77
2022/01/02 07:31:33;;;;;;;4.13;2.17;;;11.20;99.90;;;;;;5007813;28;20215;-78
2022/01/02 07:33:58;;;;;;;4.97;2.13;;;11.10;99.90;;;;;;5007085;28;20179;-78
2022/01/02 07:36:24;;;;;;;2.30;1.90;;;11.10;99.90;;;;;;5006060;28;20204;-81
2022/01/02 07:38:50;;;;;;;3.70;2.45;;;11.00;99.90;;;;;;5008154;28;20241;-81
2022/01/02 07:41:15;;;;;;;6.82;2.28;;;11.10;99.90;;;;;;5003808;28;20902;-81
2022/01/02 07:43:41;;;;;;;3.03;1.98;;;11.10;99.90;;;;;;5005917;28;20642;-81
2022/01/02 07:46:06;;;;;;;3.30;2.20;;;11.20;99.90;;;;;;5003636;28;20257;-81
2022/01/02 07:48:32;;;;;;;4.20;2.30;;;11.10;99.90;;;;;;5003902;28;20188;-83
2022/01/02 07:50:58;;;;;;;4.85;2.15;;;11.10;99.90;;;;;;5020048;28;20550;-83
2022/01/02 07:53:24;;;;;;;4.03;2.20;;;11.10;99.90;;;;;;5002986;28;20658;-80
2022/01/02 07:55:49;;;;;;;7.28;2.42;;;11.00;99.90;;;;;;5008046;28;20210;-81
2022/01/02 07:58:15;;;;;;;3.03;2.08;;;11.10;99.90;;;;;;5006392;28;20934;-82
2022/01/02 08:00:41;;;;;;;4.47;2.30;;;11.10;99.90;;;;;;5003881;28;20194;-83
2022/01/02 08:03:08;;;;;;;4.10;2.03;;;11.10;99.90;;;;;;5005593;28;20187;-82
2022/01/02 08:05:33;;;;;;;3.78;2.25;;;11.10;99.90;;;;;;4998298;28;20203;-81
2022/01/02 08:07:59;;;;;;;4.80;2.33;;;11.10;99.90;;;;;;5007325;28;20805;-81
2022/01/02 08:10:26;;;;;;;2.97;1.95;;;11.20;99.90;;;;;;5005871;28;20188;-81
2022/01/02 08:12:52;;;;;;;3.55;2.40;;;11.20;99.90;;;;;;5008173;28;20191;-82
2022/01/02 08:15:18;;;;;;;4.32;2.28;;;11.20;99.90;;;;;;5007349;28;20208;-81
2022/01/02 08:17:44;;;;;;;3.70;1.92;;;11.20;99.90;;;;;;5008816;28;20238;-81
2022/01/02 08:20:09;;;;;;;2.55;2.05;;;11.20;99.90;;;;;;5007738;28;20907;-82
2022/01/02 08:22:35;;;;;;;4.05;2.15;;;11.30;99.90;;;;;;5010713;28;20183;-80
2022/01/02 08:25:02;;;;;;;4.18;2.45;;;11.40;99.90;;;;;;5012763;28;20215;-81
2022/01/02 08:27:28;;;;;;;4.93;1.98;;;11.30;99.90;;;;;;5013154;28;20171;-80
2022/01/02 08:29:54;;;;;;;5.25;2.88;;;11.40;99.90;;;;;;5010476;28;20261;-80
2022/01/02 08:32:20;;;;;;;4.53;2.10;;;11.30;99.90;;;;;;5010548;28;20183;-80
2022/01/02 08:34:45;;;;;;;3.47;2.08;;;11.30;99.90;;;;;;5009983;28;20237;-80
2022/01/02 08:37:14;;;;;;;3.95;2.20;;;11.20;99.90;;;;;;5012082;28;20237;-80
2022/01/02 08:39:44;;;;;;;5.30;2.33;;;11.30;99.90;;;;;;5012754;28;20179;-82
2022/01/02 08:42:12;;;;;;;4.97;2.30;;;11.30;99.90;;;;;;5027834;28;20230;-80
2022/01/02 08:44:39;;;;;;;3.13;2.08;;;11.40;99.90;;;;;;5027564;28;20210;-80
2022/01/02 08:47:06;;;;;;;3.90;2.13;;;11.40;99.90;;;;;;5027742;28;20184;-80
2022/01/02 08:49:32;;;;;;;3.88;2.20;;;11.40;99.90;;;;;;5009567;28;20175;-79
2022/01/02 08:51:57;;;;;;;3.85;1.98;;;11.60;99.90;;;;;;5006383;28;20231;-81
2022/01/02 08:54:23;;;;;;;5.60;2.33;;;11.60;99.90;;;;;;5008067;28;20847;-79
2022/01/02 08:56:49;;;;;;;6.80;2.22;;;11.70;99.90;;;;;;5008907;28;20195;-79
2022/01/02 08:59:14;;;;;;;3.65;2.05;;;11.70;99.90;;;;;;5007558;28;20230;-78
2022/01/02 09:01:40;;;;;;;5.68;2.40;;;11.80;99.90;;;;;;5007346;28;20669;-79
2022/01/02 09:04:05;;;;;;;5.57;2.58;;;11.80;99.90;;;;;;5008004;28;20183;-79
2022/01/02 09:06:31;;;;;;;4.15;2.35;;;11.80;99.90;;;;;;5008878;28;20199;-79
2022/01/02 09:08:57;;;;;;;4.53;2.10;;;11.70;99.90;;;;;;5007933;28;20654;-79
2022/01/02 09:11:23;;;;;;;3.28;2.08;;;11.80;99.90;;;;;;5007305;28;20194;-78
2022/01/02 09:13:49;;;;;;;6.50;2.40;;;11.70;99.90;;;;;;5008694;28;20226;-80
2022/01/02 09:16:15;;;;;;;4.10;2.30;;;11.70;99.90;;;;;;5009006;28;20250;-79
2022/01/02 09:18:40;;;;;;;3.83;2.10;;;11.70;99.90;;;;;;5008387;28;20245;-78
2022/01/02 09:21:06;;;;;;;4.80;2.10;;;11.70;99.90;;;;;;5008881;28;20951;-78
2022/01/02 09:23:31;;;;;;;3.05;2.10;;;11.60;99.90;;;;;;5008471;28;21084;-79
2022/01/02 09:25:57;;;;;;;3.28;2.25;;;11.60;99.90;;;;;;5007647;28;20715;-79
2022/01/02 09:28:23;;;;;;;7.05;2.35;;;11.50;99.90;;;;;;5007718;28;20664;-78
2022/01/02 09:30:48;;;;;;;5.13;2.50;;;11.60;99.90;;;;;;5008200;28;20842;-78
2022/01/02 09:33:14;;;;;;;6.57;2.97;;;11.50;99.90;;;;;;5022978;28;20322;-80
2022/01/02 09:35:41;;;;;;;4.90;2.30;;;11.50;99.90;;;;;;5005699;28;20293;-78
2022/01/02 09:38:08;;;;;;;3.95;2.13;;;11.50;99.90;;;;;;5008529;28;20184;-79
2022/01/02 09:40:34;;;;;;;4.53;2.00;;;11.50;99.90;;;;;;5006277;28;21070;-79
2022/01/02 09:43:02;;;;;;;3.00;2.45;;;11.60;99.90;;;;;;5008312;28;20611;-80
2022/01/02 09:45:27;;;;;;;3.15;2.13;;;11.60;99.90;;;;;;5006534;28;20218;-81
2022/01/02 09:47:53;;;;;;;5.15;2.35;;;11.60;99.90;;;;;;5008964;28;20196;-80
2022/01/02 09:50:19;;;;;;;6.57;2.40;;;11.60;99.90;;;;;;5006571;28;20188;-82
2022/01/02 09:52:46;;;;;;;4.63;2.20;;;11.60;99.90;;;;;;5008070;28;20194;-78
2022/01/02 09:55:12;;;;;;;7.85;4.57;;;11.60;99.90;;;;;;5005443;28;20386;-79
2022/01/02 09:57:48;;;;;;;25.10;14.73;;;11.70;99.90;;;;;;5004396;28;20187;-80
2022/01/02 10:00:15;;;;;;;11.20;7.30;;;11.70;99.90;;;;;;5005783;28;20186;-79
2022/01/02 10:03:02;;;;;;;6.85;2.53;;;11.70;99.90;;;;;;5015785;28;20202;-78
2022/01/02 10:05:29;;;;;;;4.25;2.03;;;11.90;99.90;;;;;;5007330;28;20207;-79
2022/01/02 10:07:56;;;;;;;3.42;2.30;;;12.20;99.90;;;;;;5007876;28;20214;-79
2022/01/02 10:10:33;;;;;;;3.42;2.10;;;12.40;99.90;;;;;;5006475;28;20188;-79
2022/01/02 10:13:03;;;;;;;5.60;2.33;;;12.40;99.90;;;;;;5007661;28;20798;-79
2022/01/02 10:15:29;;;;;;;4.95;1.98;;;12.40;99.90;;;;;;5006911;28;20860;-79
2022/01/02 10:18:07;;;;;;;4.85;2.25;;;12.40;99.90;;;;;;5006985;28;20179;-78
2022/01/02 10:20:41;;;;;;;6.22;2.33;;;12.40;99.90;;;;;;5006020;28;20763;-78
2022/01/02 10:23:23;;;;;;;6.15;2.38;;;12.40;99.90;;;;;;5005849;28;20187;-78
2022/01/02 10:25:55;;;;;;;4.75;2.25;;;12.30;99.90;;;;;;4998240;28;20294;-79
2022/01/02 10:28:37;;;;;;;6.72;2.58;;;12.30;99.90;;;;;;5005626;28;20275;-78
2022/01/02 10:31:17;;;;;;;4.57;2.20;;;12.20;99.90;;;;;;5006340;28;20184;-78
2022/01/02 10:33:52;;;;;;;3.22;2.40;;;12.20;99.90;;;;;;5006683;28;20179;-78
2022/01/02 10:36:31;;;;;;;4.20;2.45;;;12.30;99.90;;;;;;5007347;28;20206;-79
2022/01/02 10:39:11;;;;;;;3.90;1.90;;;12.40;99.90;;;;;;5015955;28;20218;-79
2022/01/02 10:41:51;;;;;;;4.45;1.75;;;12.50;99.90;;;;;;5004617;28;20193;-79
2022/01/02 10:44:19;;;;;;;4.30;1.63;;;12.50;99.90;;;;;;5005769;28;20207;-79
2022/01/02 10:47:09;;;;;;;4.80;1.80;;;12.50;99.90;;;;;;5006386;28;20267;-80
2022/01/02 10:50:04;;;;;;;3.40;1.83;;;12.40;99.90;;;;;;5005626;28;20207;-79
2022/01/02 10:52:37;;;;;;;2.13;1.60;;;12.50;99.90;;;;;;5006896;28;20591;-80
2022/01/02 10:55:21;;;;;;;4.18;1.80;;;12.40;99.90;;;;;;5005431;28;20306;-78
2022/01/02 10:57:51;;;;;;;4.20;1.60;;;12.50;99.90;;;;;;5005802;28;20249;-78
2022/01/02 11:00:18;;;;;;;2.70;1.80;;;12.60;99.90;;;;;;5003877;28;20681;-78
2022/01/02 11:02:45;;;;;;;2.58;1.65;;;12.50;99.90;;;;;;5001244;28;20270;-78
2022/01/02 11:05:15;;;;;;;2.38;1.55;;;12.60;99.90;;;;;;5005789;28;20232;-79
2022/01/02 11:07:48;;;;;;;5.95;1.60;;;12.50;99.90;;;;;;5003225;28;20273;-78
2022/01/02 11:10:17;;;;;;;3.00;1.50;;;12.50;99.90;;;;;;4996771;28;20566;-78
2022/01/02 11:12:44;;;;;;;3.05;1.65;;;12.50;99.90;;;;;;5003649;28;20274;-79
2022/01/02 11:15:16;;;;;;;2.67;1.90;;;12.50;99.90;;;;;;5005485;28;20207;-80
2022/01/02 11:17:42;;;;;;;3.58;2.17;;;12.50;99.90;;;;;;5006122;28;20217;-80
2022/01/02 11:20:15;;;;;;;2.60;1.70;;;12.50;99.90;;;;;;5005932;28;20184;-77
2022/01/02 11:23:09;;;;;;;3.17;1.70;;;12.60;99.90;;;;;;5003934;28;20229;-79
2022/01/02 11:25:56;;;;;;;3.10;1.63;;;12.50;99.90;;;;;;5004670;28;20269;-79
2022/01/02 11:28:34;;;;;;;3.22;2.10;;;12.60;99.90;;;;;;5006418;28;20692;-78
2022/01/02 11:31:01;;;;;;;4.60;1.70;;;12.60;99.90;;;;;;5002370;28;20341;-80
2022/01/02 11:33:33;;;;;;;2.75;1.50;;;12.60;99.90;;;;;;5002135;28;20238;-80
2022/01/02 11:36:01;;;;;;;3.70;1.63;;;12.70;99.90;;;;;;4986015;28;20207;-79
2022/01/02 11:38:42;;;;;;;3.03;1.80;;;12.70;99.90;;;;;;5003698;28;20225;-80
2022/01/02 11:41:07;;;;;;;4.75;1.45;;;12.50;99.90;;;;;;5004156;28;20612;-80
2022/01/02 11:43:36;;;;;;;5.03;2.42;;;12.50;99.90;;;;;;5000920;28;20176;-78
2022/01/02 11:46:17;;;;;;;2.80;1.58;;;12.50;99.90;;;;;;5002338;28;20203;-80
2022/01/02 11:48:54;;;;;;;3.58;1.30;;;12.60;99.90;;;;;;4988731;28;20589;-80
2022/01/02 11:51:51;;;;;;;3.83;1.60;;;12.60;99.90;;;;;;5000126;28;20207;-80
2022/01/02 11:54:32;;;;;;;2.50;1.50;;;12.70;99.90;;;;;;5001927;28;20707;-81
2022/01/02 11:57:10;;;;;;;3.17;1.60;;;12.90;99.90;;;;;;5004724;28;20187;-82
2022/01/02 11:59:39;;;;;;;3.92;1.60;;;13.00;99.90;;;;;;5004384;28;20274;-81
2022/01/02 12:02:08;;;;;;;4.60;2.08;;;13.10;99.90;;;;;;5004344;28;20202;-82
2022/01/02 12:05:14;;;;;;;6.57;2.05;;;13.20;99.90;;;;;;5002430;28;20259;-81
2022/01/02 12:07:50;;;;;;;7.45;3.88;;;13.40;99.90;;;;;;5002477;28;20271;-84
2022/01/02 12:10:21;;;;;;;6.82;4.13;;;13.60;99.90;;;;;;5001699;28;20179;-80
2022/01/02 12:12:59;;;;;;;3.60;1.88;;;13.60;99.90;;;;;;5001955;28;20757;-81
2022/01/02 12:15:30;;;;;;;4.88;1.65;;;13.70;99.90;;;;;;5002503;28;20226;-82
2022/01/02 12:18:31;;;;;;;2.65;1.88;;;13.70;99.90;;;;;;5001604;28;20187;-79
2022/01/02 12:20:57;;;;;;;2.35;1.20;;;13.70;99.90;;;;;;5001525;28;20540;-79
2022/01/02 12:23:34;;;;;;;4.25;0.85;;;13.70;99.90;;;;;;5001722;28;20182;-79
2022/01/02 12:26:12;;;;;;;1.77;1.02;;;13.80;99.90;;;;;;4992663;28;20277;-78
2022/01/02 12:28:43;;;;;;;2.90;1.20;;;13.70;99.90;;;;;;5001624;28;20744;-83
2022/01/02 12:31:11;;;;;;;1.48;0.98;;;13.50;99.90;;;;;;5001148;28;20681;-85
2022/01/02 12:33:38;;;;;;;1.90;1.17;;;13.40;99.90;;;;;;4999590;28;20202;-79
2022/01/02 12:36:15;;;;;;;3.20;1.40;;;13.30;99.90;;;;;;5000708;28;20697;-80
2022/01/02 12:38:45;;;;;;;2.40;1.10;;;13.30;99.90;;;;;;5000456;28;20206;-79
2022/01/02 12:41:12;;;;;;;2.70;1.20;;;13.30;99.90;;;;;;4999355;28;20442;-79
2022/01/02 12:43:37;;;;;;;3.80;1.15;;;13.40;99.90;;;;;;4999680;28;20194;-80
2022/01/02 12:46:03;;;;;;;4.32;1.30;;;13.40;99.90;;;;;;4999238;28;20207;-80
2022/01/02 12:48:35;;;;;;;1.63;0.93;;;13.30;99.90;;;;;;5001509;28;20533;-78
2022/01/02 12:51:11;;;;;;;4.28;1.25;;;13.30;99.90;;;;;;5000914;28;20183;-81
2022/01/02 12:53:37;;;;;;;2.67;1.20;;;13.30;99.90;;;;;;4999563;28;20176;-79
2022/01/02 12:56:03;;;;;;;1.45;1.00;;;13.20;99.90;;;;;;5003305;28;20207;-80
2022/01/02 12:58:31;;;;;;;2.00;1.17;;;13.10;99.90;;;;;;5001695;28;20183;-79
2022/01/02 13:01:06;;;;;;;2.10;1.42;;;13.00;99.90;;;;;;4997992;28;20282;-80
2022/01/02 13:03:31;;;;;;;1.90;1.20;;;13.00;99.90;;;;;;5000576;28;20175;-80